sensor_id;sensor_type;location;lat;lon;timestamp;temperature;humidity
14172;DHT22;7165;52.388;4.928;2023-03-03T00:00:02;2.60;99.90
14172;DHT22;7165;52.388;4.928;2023-03-03T00:02:28;2.60;99.90
14172;DHT22;7165;52.388;4.928;2023-03-03T00:04:55;2.70;99.90
14172;DHT22;7165;52.388;4.928;2023-03-03T00:07:22;2.70;99.90
14172;DHT22;7165;52.388;4.928;2023-03-03T00:09:51;2.70;99.90
14172;DHT22;7165;52.388;4.928;2023-03-03T00:12:23;2.70;99.90
14172;DHT22;7165;52.388;4.928;2023-03-03T00:14:50;2.60;99.90
14172;DHT22;7165;52.388;4.928;2023-03-03T00:17:20;2.60;99.90
14172;DHT22;7165;52.388;4.928;2023-03-03T00:19:48;2.60;99.90
14172;DHT22;7165;52.388;4.928;2023-03-03T00:22:25;2.60;99.90
14172;DHT22;7165;52.388;4.928;2023-03-03T00:24:54;2.60;99.90
14172;DHT22;7165;52.388;4.928;2023-03-03T00:27:27;2.60;99.90
14172;DHT22;7165;52.388;4.928;2023-03-03T00:29:56;2.60;99.90
14172;DHT22;7165;52.388;4.928;2023-03-03T00:32:24;2.60;99.90
14172;DHT22;7165;52.388;4.928;2023-03-03T00:34:52;2.60;99.90
14172;DHT22;7165;52.388;4.928;2023-03-03T00:37:26;2.60;99.90
14172;DHT22;7165;52.388;4.928;2023-03-03T00:39:58;2.50;99.90
14172;DHT22;7165;52.388;4.928;2023-03-03T00:42:28;2.50;99.90
14172;DHT22;7165;52.388;4.928;2023-03-03T00:44:59;2.50;99.90
14172;DHT22;7165;52.388;4.928;2023-03-03T00:47:28;2.40;99.90
14172;DHT22;7165;52.388;4.928;2023-03-03T00:52:59;2.30;99.90
14172;DHT22;7165;52.388;4.928;2023-03-03T00:55:28;2.30;99.90
14172;DHT22;7165;52.388;4.928;2023-03-03T00:57:55;2.30;99.90
14172;DHT22;7165;52.388;4.928;2023-03-03T01:00:22;2.20;99.90
14172;DHT22;7165;52.388;4.928;2023-03-03T01:02:49;2.30;99.90
14172;DHT22;7165;52.388;4.928;2023-03-03T01:05:17;2.30;99.90
14172;DHT22;7165;52.388;4.928;2023-03-03T01:07:44;2.30;99.90
14172;DHT22;7165;52.388;4.928;2023-03-03T01:10:11;2.20;99.90
14172;DHT22;7165;52.388;4.928;2023-03-03T01:12:39;2.20;99.90
14172;DHT22;7165;52.388;4.928;2023-03-03T01:15:09;2.10;99.90
14172;DHT22;7165;52.388;4.928;2023-03-03T01:17:36;2.10;99.90
14172;DHT22;7165;52.388;4.928;2023-03-03T01:20:05;2.10;99.90
14172;DHT22;7165;52.388;4.928;2023-03-03T01:22:32;2.10;99.90
14172;DHT22;7165;52.388;4.928;2023-03-03T01:24:59;2.00;99.90
14172;DHT22;7165;52.388;4.928;2023-03-03T01:27:28;1.90;99.90
14172;DHT22;7165;52.388;4.928;2023-03-03T01:29:56;2.00;99.90
14172;DHT22;7165;52.388;4.928;2023-03-03T01:32:22;1.90;99.90
14172;DHT22;7165;52.388;4.928;2023-03-03T01:34:49;1.90;99.90
14172;DHT22;7165;52.388;4.928;2023-03-03T01:37:16;1.90;99.90
14172;DHT22;7165;52.388;4.928;2023-03-03T01:39:47;1.90;99.90
14172;DHT22;7165;52.388;4.928;2023-03-03T01:42:14;1.80;99.90
14172;DHT22;7165;52.388;4.928;2023-03-03T01:44:40;1.80;99.90
14172;DHT22;7165;52.388;4.928;2023-03-03T01:47:10;1.80;99.90
14172;DHT22;7165;52.388;4.928;2023-03-03T01:49:43;1.80;99.90
14172;DHT22;7165;52.388;4.928;2023-03-03T01:52:15;1.80;99.90
14172;DHT22;7165;52.388;4.928;2023-03-03T01:54:48;1.80;99.90
14172;DHT22;7165;52.388;4.928;2023-03-03T01:57:21;1.80;99.90
14172;DHT22;7165;52.388;4.928;2023-03-03T01:59:50;1.80;99.90
14172;DHT22;7165;52.388;4.928;2023-03-03T02:02:20;1.80;99.90
14172;DHT22;7165;52.388;4.928;2023-03-03T02:04:48;1.90;99.90
14172;DHT22;7165;52.388;4.928;2023-03-03T02:07:15;1.90;99.90
14172;DHT22;7165;52.388;4.928;2023-03-03T02:09:49;1.90;99.90
14172;DHT22;7165;52.388;4.928;2023-03-03T02:12:20;1.90;99.90
14172;DHT22;7165;52.388;4.928;2023-03-03T02:14:48;1.90;99.90
14172;DHT22;7165;52.388;4.928;2023-03-03T02:17:15;1.90;99.90
14172;DHT22;7165;52.388;4.928;2023-03-03T02:19:50;2.00;99.90
14172;DHT22;7165;52.388;4.928;2023-03-03T02:22:23;2.10;99.90
14172;DHT22;7165;52.388;4.928;2023-03-03T02:24:55;2.10;99.90
14172;DHT22;7165;52.388;4.928;2023-03-03T02:27:25;2.10;99.90
14172;DHT22;7165;52.388;4.928;2023-03-03T02:29:53;2.20;99.90
14172;DHT22;7165;52.388;4.928;2023-03-03T02:32:20;2.30;99.90
14172;DHT22;7165;52.388;4.928;2023-03-03T02:34:47;2.30;99.90
14172;DHT22;7165;52.388;4.928;2023-03-03T02:37:14;2.40;99.90
14172;DHT22;7165;52.388;4.928;2023-03-03T02:39:43;2.50;99.90
14172;DHT22;7165;52.388;4.928;2023-03-03T02:42:13;2.60;99.90
14172;DHT22;7165;52.388;4.928;2023-03-03T02:44:43;2.70;99.90
14172;DHT22;7165;52.388;4.928;2023-03-03T02:47:09;2.80;99.90
14172;DHT22;7165;52.388;4.928;2023-03-03T02:49:36;2.80;99.90
14172;DHT22;7165;52.388;4.928;2023-03-03T02:52:05;2.80;99.90
14172;DHT22;7165;52.388;4.928;2023-03-03T02:54:34;2.90;99.90
14172;DHT22;7165;52.388;4.928;2023-03-03T02:57:01;2.90;99.90
14172;DHT22;7165;52.388;4.928;2023-03-03T02:59:29;2.90;99.90
14172;DHT22;7165;52.388;4.928;2023-03-03T03:01:57;3.00;99.90
14172;DHT22;7165;52.388;4.928;2023-03-03T03:04:25;3.00;99.90
14172;DHT22;7165;52.388;4.928;2023-03-03T03:06:53;3.00;99.90
14172;DHT22;7165;52.388;4.928;2023-03-03T03:09:21;3.00;99.90
14172;DHT22;7165;52.388;4.928;2023-03-03T03:11:48;3.10;99.90
14172;DHT22;7165;52.388;4.928;2023-03-03T03:14:15;3.20;99.90
14172;DHT22;7165;52.388;4.928;2023-03-03T03:16:42;3.20;99.90
14172;DHT22;7165;52.388;4.928;2023-03-03T03:19:10;3.20;99.90
14172;DHT22;7165;52.388;4.928;2023-03-03T03:21:37;3.20;99.90
14172;DHT22;7165;52.388;4.928;2023-03-03T03:24:04;3.20;99.90
14172;DHT22;7165;52.388;4.928;2023-03-03T03:26:31;3.20;99.90
14172;DHT22;7165;52.388;4.928;2023-03-03T03:28:58;3.30;99.90
14172;DHT22;7165;52.388;4.928;2023-03-03T03:31:24;3.30;99.90
14172;DHT22;7165;52.388;4.928;2023-03-03T03:33:51;3.30;99.90
14172;DHT22;7165;52.388;4.928;2023-03-03T03:36:19;3.30;99.90
14172;DHT22;7165;52.388;4.928;2023-03-03T03:38:46;3.40;99.90
14172;DHT22;7165;52.388;4.928;2023-03-03T03:41:13;3.40;99.90
14172;DHT22;7165;52.388;4.928;2023-03-03T03:43:40;3.40;99.90
14172;DHT22;7165;52.388;4.928;2023-03-03T03:46:08;3.30;99.90
14172;DHT22;7165;52.388;4.928;2023-03-03T03:48:35;3.30;99.90
14172;DHT22;7165;52.388;4.928;2023-03-03T03:51:01;3.30;99.90
14172;DHT22;7165;52.388;4.928;2023-03-03T03:53:30;3.30;99.90
14172;DHT22;7165;52.388;4.928;2023-03-03T03:55:56;3.40;99.90
14172;DHT22;7165;52.388;4.928;2023-03-03T03:58:23;3.40;99.90
14172;DHT22;7165;52.388;4.928;2023-03-03T04:00:50;3.40;99.90
14172;DHT22;7165;52.388;4.928;2023-03-03T04:03:17;3.40;99.90
14172;DHT22;7165;52.388;4.928;2023-03-03T04:05:43;3.40;99.90
14172;DHT22;7165;52.388;4.928;2023-03-03T04:08:10;3.40;99.90
14172;DHT22;7165;52.388;4.928;2023-03-03T04:10:38;3.40;99.90
14172;DHT22;7165;52.388;4.928;2023-03-03T04:13:05;3.40;99.90
14172;DHT22;7165;52.388;4.928;2023-03-03T04:15:32;3.40;99.90
14172;DHT22;7165;52.388;4.928;2023-03-03T04:17:58;3.40;99.90
14172;DHT22;7165;52.388;4.928;2023-03-03T04:20:25;3.40;99.90
14172;DHT22;7165;52.388;4.928;2023-03-03T04:22:52;3.40;99.90
14172;DHT22;7165;52.388;4.928;2023-03-03T04:25:19;3.40;99.90
14172;DHT22;7165;52.388;4.928;2023-03-03T04:27:47;3.40;99.90
14172;DHT22;7165;52.388;4.928;2023-03-03T04:30:15;3.40;99.90
14172;DHT22;7165;52.388;4.928;2023-03-03T04:32:41;3.40;99.90
14172;DHT22;7165;52.388;4.928;2023-03-03T04:35:09;3.40;99.90
14172;DHT22;7165;52.388;4.928;2023-03-03T04:37:36;3.40;99.90
14172;DHT22;7165;52.388;4.928;2023-03-03T04:40:03;3.40;99.90
14172;DHT22;7165;52.388;4.928;2023-03-03T04:42:30;3.40;99.90
14172;DHT22;7165;52.388;4.928;2023-03-03T04:44:58;3.50;99.90
14172;DHT22;7165;52.388;4.928;2023-03-03T04:47:25;3.50;99.90
14172;DHT22;7165;52.388;4.928;2023-03-03T04:49:52;3.50;99.90
14172;DHT22;7165;52.388;4.928;2023-03-03T04:52:18;3.50;99.90
14172;DHT22;7165;52.388;4.928;2023-03-03T04:54:45;3.50;99.90
14172;DHT22;7165;52.388;4.928;2023-03-03T04:57:12;3.50;99.90
14172;DHT22;7165;52.388;4.928;2023-03-03T04:59:38;3.50;99.90
14172;DHT22;7165;52.388;4.928;2023-03-03T05:02:07;3.50;99.90
14172;DHT22;7165;52.388;4.928;2023-03-03T05:04:34;3.50;99.90
14172;DHT22;7165;52.388;4.928;2023-03-03T05:07:01;3.50;99.90
14172;DHT22;7165;52.388;4.928;2023-03-03T05:09:27;3.50;99.90
14172;DHT22;7165;52.388;4.928;2023-03-03T05:11:54;3.50;99.90
14172;DHT22;7165;52.388;4.928;2023-03-03T05:14:21;3.60;99.90
14172;DHT22;7165;52.388;4.928;2023-03-03T05:16:48;3.60;99.90
14172;DHT22;7165;52.388;4.928;2023-03-03T05:19:16;3.60;99.90
14172;DHT22;7165;52.388;4.928;2023-03-03T05:21:42;3.60;99.90
14172;DHT22;7165;52.388;4.928;2023-03-03T05:24:10;3.50;99.90
14172;DHT22;7165;52.388;4.928;2023-03-03T05:26:37;3.50;99.90
14172;DHT22;7165;52.388;4.928;2023-03-03T05:29:04;3.50;99.90
14172;DHT22;7165;52.388;4.928;2023-03-03T05:31:32;3.50;99.90
14172;DHT22;7165;52.388;4.928;2023-03-03T05:33:58;3.50;99.90
14172;DHT22;7165;52.388;4.928;2023-03-03T05:36:26;3.60;99.90
14172;DHT22;7165;52.388;4.928;2023-03-03T05:38:53;3.60;99.90
14172;DHT22;7165;52.388;4.928;2023-03-03T05:41:20;3.60;99.90
14172;DHT22;7165;52.388;4.928;2023-03-03T05:43:47;3.60;99.90
14172;DHT22;7165;52.388;4.928;2023-03-03T05:46:14;3.60;99.90
14172;DHT22;7165;52.388;4.928;2023-03-03T05:48:40;3.60;99.90
14172;DHT22;7165;52.388;4.928;2023-03-03T05:51:07;3.60;99.90
14172;DHT22;7165;52.388;4.928;2023-03-03T05:53:35;3.60;99.90
14172;DHT22;7165;52.388;4.928;2023-03-03T05:56:02;3.60;99.90
14172;DHT22;7165;52.388;4.928;2023-03-03T05:58:29;3.60;99.90
14172;DHT22;7165;52.388;4.928;2023-03-03T06:00:56;3.60;99.90
14172;DHT22;7165;52.388;4.928;2023-03-03T06:03:23;3.60;99.90
14172;DHT22;7165;52.388;4.928;2023-03-03T06:05:50;3.60;99.90
14172;DHT22;7165;52.388;4.928;2023-03-03T06:08:16;3.60;99.90
14172;DHT22;7165;52.388;4.928;2023-03-03T06:10:44;3.60;99.90
14172;DHT22;7165;52.388;4.928;2023-03-03T06:13:11;3.60;99.90
14172;DHT22;7165;52.388;4.928;2023-03-03T06:15:38;3.60;99.90
14172;DHT22;7165;52.388;4.928;2023-03-03T06:18:04;3.60;99.90
14172;DHT22;7165;52.388;4.928;2023-03-03T06:20:31;3.60;99.90
14172;DHT22;7165;52.388;4.928;2023-03-03T06:22:59;3.60;99.90
14172;DHT22;7165;52.388;4.928;2023-03-03T06:25:26;3.60;99.90
14172;DHT22;7165;52.388;4.928;2023-03-03T06:27:54;3.50;99.90
14172;DHT22;7165;52.388;4.928;2023-03-03T06:30:21;3.50;99.90
14172;DHT22;7165;52.388;4.928;2023-03-03T06:32:47;3.50;99.90
14172;DHT22;7165;52.388;4.928;2023-03-03T06:35:14;3.50;99.90
14172;DHT22;7165;52.388;4.928;2023-03-03T06:37:42;3.60;99.90
14172;DHT22;7165;52.388;4.928;2023-03-03T06:40:10;3.60;99.90
14172;DHT22;7165;52.388;4.928;2023-03-03T06:42:37;3.60;99.90
14172;DHT22;7165;52.388;4.928;2023-03-03T06:45:06;3.60;99.90
14172;DHT22;7165;52.388;4.928;2023-03-03T06:47:33;3.60;99.90
14172;DHT22;7165;52.388;4.928;2023-03-03T06:49:59;3.60;99.90
14172;DHT22;7165;52.388;4.928;2023-03-03T06:52:26;3.60;99.90
14172;DHT22;7165;52.388;4.928;2023-03-03T06:54:54;3.60;99.90
14172;DHT22;7165;52.388;4.928;2023-03-03T06:57:25;3.50;99.90
14172;DHT22;7165;52.388;4.928;2023-03-03T06:59:54;3.50;99.90
14172;DHT22;7165;52.388;4.928;2023-03-03T07:02:22;3.50;99.90
14172;DHT22;7165;52.388;4.928;2023-03-03T07:04:49;3.50;99.90
14172;DHT22;7165;52.388;4.928;2023-03-03T07:07:17;3.50;99.90
14172;DHT22;7165;52.388;4.928;2023-03-03T07:09:46;3.50;99.90
14172;DHT22;7165;52.388;4.928;2023-03-03T07:12:15;3.50;99.90
14172;DHT22;7165;52.388;4.928;2023-03-03T07:14:45;3.50;99.90
14172;DHT22;7165;52.388;4.928;2023-03-03T07:17:16;3.50;99.90
14172;DHT22;7165;52.388;4.928;2023-03-03T07:19:46;3.40;99.90
14172;DHT22;7165;52.388;4.928;2023-03-03T07:22:15;3.50;99.90
14172;DHT22;7165;52.388;4.928;2023-03-03T07:24:44;3.50;99.90
14172;DHT22;7165;52.388;4.928;2023-03-03T07:27:18;3.50;99.90
14172;DHT22;7165;52.388;4.928;2023-03-03T07:29:48;3.50;99.90
14172;DHT22;7165;52.388;4.928;2023-03-03T07:32:23;3.50;99.90
14172;DHT22;7165;52.388;4.928;2023-03-03T07:34:53;3.50;99.90
14172;DHT22;7165;52.388;4.928;2023-03-03T07:37:26;3.60;99.90
14172;DHT22;7165;52.388;4.928;2023-03-03T07:39:54;3.60;99.90
14172;DHT22;7165;52.388;4.928;2023-03-03T07:42:22;3.60;99.90
14172;DHT22;7165;52.388;4.928;2023-03-03T07:44:54;3.60;99.90
14172;DHT22;7165;52.388;4.928;2023-03-03T07:47:23;3.60;99.90
14172;DHT22;7165;52.388;4.928;2023-03-03T07:49:54;3.60;99.90
14172;DHT22;7165;52.388;4.928;2023-03-03T07:52:31;3.50;99.90
14172;DHT22;7165;52.388;4.928;2023-03-03T07:55:27;3.50;99.90
14172;DHT22;7165;52.388;4.928;2023-03-03T07:57:56;3.50;99.90
14172;DHT22;7165;52.388;4.928;2023-03-03T08:03:36;3.50;99.90
14172;DHT22;7165;52.388;4.928;2023-03-03T08:06:23;3.60;99.90
14172;DHT22;7165;52.388;4.928;2023-03-03T08:08:56;3.60;99.90
14172;DHT22;7165;52.388;4.928;2023-03-03T08:11:27;3.70;99.90
14172;DHT22;7165;52.388;4.928;2023-03-03T08:13:54;3.70;99.90
14172;DHT22;7165;52.388;4.928;2023-03-03T08:16:28;3.70;99.90
14172;DHT22;7165;52.388;4.928;2023-03-03T08:18:57;3.80;99.90
14172;DHT22;7165;52.388;4.928;2023-03-03T08:21:28;3.80;99.90
14172;DHT22;7165;52.388;4.928;2023-03-03T08:23:56;3.90;99.90
14172;DHT22;7165;52.388;4.928;2023-03-03T08:26:24;3.90;99.90
14172;DHT22;7165;52.388;4.928;2023-03-03T08:28:51;3.90;99.90
14172;DHT22;7165;52.388;4.928;2023-03-03T08:31:20;4.00;99.90
14172;DHT22;7165;52.388;4.928;2023-03-03T08:33:47;4.00;99.90
14172;DHT22;7165;52.388;4.928;2023-03-03T08:36:14;4.00;99.90
14172;DHT22;7165;52.388;4.928;2023-03-03T08:38:42;4.10;99.90
14172;DHT22;7165;52.388;4.928;2023-03-03T08:41:10;4.10;99.90
14172;DHT22;7165;52.388;4.928;2023-03-03T08:43:37;4.20;99.90
14172;DHT22;7165;52.388;4.928;2023-03-03T08:46:05;4.30;99.90
14172;DHT22;7165;52.388;4.928;2023-03-03T08:51:13;4.30;99.90
14172;DHT22;7165;52.388;4.928;2023-03-03T08:51:40;4.40;99.90
14172;DHT22;7165;52.388;4.928;2023-03-03T08:54:08;4.40;99.90
14172;DHT22;7165;52.388;4.928;2023-03-03T08:56:34;4.50;99.90
14172;DHT22;7165;52.388;4.928;2023-03-03T08:59:01;4.60;99.90
14172;DHT22;7165;52.388;4.928;2023-03-03T09:01:28;4.60;99.90
14172;DHT22;7165;52.388;4.928;2023-03-03T09:03:55;4.80;99.90
14172;DHT22;7165;52.388;4.928;2023-03-03T09:06:22;4.90;99.90
14172;DHT22;7165;52.388;4.928;2023-03-03T09:08:48;5.00;99.90
14172;DHT22;7165;52.388;4.928;2023-03-03T09:11:23;5.20;99.90
14172;DHT22;7165;52.388;4.928;2023-03-03T09:13:51;5.30;99.90
14172;DHT22;7165;52.388;4.928;2023-03-03T09:16:19;5.50;99.90
14172;DHT22;7165;52.388;4.928;2023-03-03T09:18:46;5.60;99.90
14172;DHT22;7165;52.388;4.928;2023-03-03T09:21:20;5.70;99.90
14172;DHT22;7165;52.388;4.928;2023-03-03T09:23:52;5.80;99.90
14172;DHT22;7165;52.388;4.928;2023-03-03T09:26:26;5.90;99.90
14172;DHT22;7165;52.388;4.928;2023-03-03T09:28:59;6.00;99.90
14172;DHT22;7165;52.388;4.928;2023-03-03T09:31:32;6.10;99.90
14172;DHT22;7165;52.388;4.928;2023-03-03T09:34:02;6.20;99.90
14172;DHT22;7165;52.388;4.928;2023-03-03T09:36:36;6.40;99.90
14172;DHT22;7165;52.388;4.928;2023-03-03T09:39:15;6.50;99.90
14172;DHT22;7165;52.388;4.928;2023-03-03T09:42:12;6.70;99.90
14172;DHT22;7165;52.388;4.928;2023-03-03T09:45:09;6.90;99.90
14172;DHT22;7165;52.388;4.928;2023-03-03T09:47:53;7.10;99.90
14172;DHT22;7165;52.388;4.928;2023-03-03T09:50:29;7.20;99.90
14172;DHT22;7165;52.388;4.928;2023-03-03T09:53:09;7.40;99.90
14172;DHT22;7165;52.388;4.928;2023-03-03T09:55:44;7.50;99.90
14172;DHT22;7165;52.388;4.928;2023-03-03T09:58:29;7.60;99.90
14172;DHT22;7165;52.388;4.928;2023-03-03T10:01:06;7.80;99.90
14172;DHT22;7165;52.388;4.928;2023-03-03T10:04:18;7.90;99.90
14172;DHT22;7165;52.388;4.928;2023-03-03T10:06:53;8.00;99.90
14172;DHT22;7165;52.388;4.928;2023-03-03T10:12:26;8.40;99.90
14172;DHT22;7165;52.388;4.928;2023-03-03T10:15:15;8.50;99.90
14172;DHT22;7165;52.388;4.928;2023-03-03T10:17:48;8.50;99.90
14172;DHT22;7165;52.388;4.928;2023-03-03T10:20:43;8.60;99.90
14172;DHT22;7165;52.388;4.928;2023-03-03T10:23:14;8.80;99.90
14172;DHT22;7165;52.388;4.928;2023-03-03T10:25:48;9.10;99.90
14172;DHT22;7165;52.388;4.928;2023-03-03T10:28:33;9.20;99.90
14172;DHT22;7165;52.388;4.928;2023-03-03T10:31:14;9.30;99.90
14172;DHT22;7165;52.388;4.928;2023-03-03T10:33:51;9.30;99.90
14172;DHT22;7165;52.388;4.928;2023-03-03T10:36:36;9.10;99.90
14172;DHT22;7165;52.388;4.928;2023-03-03T10:39:24;8.90;99.90
14172;DHT22;7165;52.388;4.928;2023-03-03T10:42:07;8.60;99.90
14172;DHT22;7165;52.388;4.928;2023-03-03T10:44:45;8.40;99.90
14172;DHT22;7165;52.388;4.928;2023-03-03T10:47:22;8.30;99.90
14172;DHT22;7165;52.388;4.928;2023-03-03T10:49:53;8.20;99.90
14172;DHT22;7165;52.388;4.928;2023-03-03T10:52:25;8.20;99.90
14172;DHT22;7165;52.388;4.928;2023-03-03T10:55:16;8.20;99.90
14172;DHT22;7165;52.388;4.928;2023-03-03T10:57:54;8.30;99.90
14172;DHT22;7165;52.388;4.928;2023-03-03T11:00:30;8.50;99.90
14172;DHT22;7165;52.388;4.928;2023-03-03T11:03:30;8.70;99.90
14172;DHT22;7165;52.388;4.928;2023-03-03T11:06:04;8.60;99.90
14172;DHT22;7165;52.388;4.928;2023-03-03T11:08:40;8.50;99.90
14172;DHT22;7165;52.388;4.928;2023-03-03T11:11:15;8.50;99.90
14172;DHT22;7165;52.388;4.928;2023-03-03T11:13:50;8.40;99.90
14172;DHT22;7165;52.388;4.928;2023-03-03T11:19:31;8.30;99.90
14172;DHT22;7165;52.388;4.928;2023-03-03T11:22:18;8.30;99.90
14172;DHT22;7165;52.388;4.928;2023-03-03T11:24:57;8.20;99.90
14172;DHT22;7165;52.388;4.928;2023-03-03T11:28:07;8.20;99.90
14172;DHT22;7165;52.388;4.928;2023-03-03T11:30:47;8.10;99.90
14172;DHT22;7165;52.388;4.928;2023-03-03T11:33:19;8.00;99.90
14172;DHT22;7165;52.388;4.928;2023-03-03T11:35:52;8.10;99.90
14172;DHT22;7165;52.388;4.928;2023-03-03T11:41:25;9.00;99.90
14172;DHT22;7165;52.388;4.928;2023-03-03T11:43:58;9.20;99.90
14172;DHT22;7165;52.388;4.928;2023-03-03T11:46:30;9.20;99.90
14172;DHT22;7165;52.388;4.928;2023-03-03T11:49:00;9.20;99.90
14172;DHT22;7165;52.388;4.928;2023-03-03T11:51:40;9.20;99.90
14172;DHT22;7165;52.388;4.928;2023-03-03T11:54:16;9.20;99.90
14172;DHT22;7165;52.388;4.928;2023-03-03T11:56:46;9.20;99.90
14172;DHT22;7165;52.388;4.928;2023-03-03T11:59:36;9.10;99.90
14172;DHT22;7165;52.388;4.928;2023-03-03T12:02:30;9.00;99.90
14172;DHT22;7165;52.388;4.928;2023-03-03T12:05:05;8.90;99.90
14172;DHT22;7165;52.388;4.928;2023-03-03T12:07:42;8.80;99.90
14172;DHT22;7165;52.388;4.928;2023-03-03T12:10:18;8.80;99.90
14172;DHT22;7165;52.388;4.928;2023-03-03T12:12:51;8.70;99.90
14172;DHT22;7165;52.388;4.928;2023-03-03T12:15:27;8.60;99.90
14172;DHT22;7165;52.388;4.928;2023-03-03T12:18:17;8.50;99.90
14172;DHT22;7165;52.388;4.928;2023-03-03T12:20:52;8.50;99.90
14172;DHT22;7165;52.388;4.928;2023-03-03T12:23:43;8.40;99.90
14172;DHT22;7165;52.388;4.928;2023-03-03T12:26:16;8.40;99.90
14172;DHT22;7165;52.388;4.928;2023-03-03T12:28:50;8.40;99.90
14172;DHT22;7165;52.388;4.928;2023-03-03T12:31:27;8.40;99.90
14172;DHT22;7165;52.388;4.928;2023-03-03T12:33:57;8.50;99.90
14172;DHT22;7165;52.388;4.928;2023-03-03T12:39:29;8.60;99.90
14172;DHT22;7165;52.388;4.928;2023-03-03T12:42:07;8.60;99.90
14172;DHT22;7165;52.388;4.928;2023-03-03T12:44:40;8.60;99.90
14172;DHT22;7165;52.388;4.928;2023-03-03T12:47:14;8.60;99.90
14172;DHT22;7165;52.388;4.928;2023-03-03T12:49:51;8.60;99.90
14172;DHT22;7165;52.388;4.928;2023-03-03T12:52:26;8.60;99.90
14172;DHT22;7165;52.388;4.928;2023-03-03T12:55:04;8.50;99.90
14172;DHT22;7165;52.388;4.928;2023-03-03T12:57:39;8.50;99.90
14172;DHT22;7165;52.388;4.928;2023-03-03T13:00:21;8.60;99.90
14172;DHT22;7165;52.388;4.928;2023-03-03T13:02:57;8.60;99.90
14172;DHT22;7165;52.388;4.928;2023-03-03T13:05:29;8.60;99.90
14172;DHT22;7165;52.388;4.928;2023-03-03T13:08:16;8.60;99.90
14172;DHT22;7165;52.388;4.928;2023-03-03T13:10:51;8.70;99.90
14172;DHT22;7165;52.388;4.928;2023-03-03T13:13:24;8.60;99.90
14172;DHT22;7165;52.388;4.928;2023-03-03T13:15:59;8.60;99.90
14172;DHT22;7165;52.388;4.928;2023-03-03T13:18:46;8.60;99.90
14172;DHT22;7165;52.388;4.928;2023-03-03T13:21:19;8.60;99.90
14172;DHT22;7165;52.388;4.928;2023-03-03T13:23:52;8.70;99.90
14172;DHT22;7165;52.388;4.928;2023-03-03T13:26:25;8.80;99.90
14172;DHT22;7165;52.388;4.928;2023-03-03T13:29:03;8.80;99.90
14172;DHT22;7165;52.388;4.928;2023-03-03T13:31:37;8.80;99.90
14172;DHT22;7165;52.388;4.928;2023-03-03T13:34:07;8.90;99.90
14172;DHT22;7165;52.388;4.928;2023-03-03T13:36:43;9.00;99.90
14172;DHT22;7165;52.388;4.928;2023-03-03T13:39:19;9.00;99.90
14172;DHT22;7165;52.388;4.928;2023-03-03T13:41:52;9.10;99.90
14172;DHT22;7165;52.388;4.928;2023-03-03T13:44:24;9.20;99.90
14172;DHT22;7165;52.388;4.928;2023-03-03T13:47:03;9.30;99.90
14172;DHT22;7165;52.388;4.928;2023-03-03T13:49:35;9.30;99.90
14172;DHT22;7165;52.388;4.928;2023-03-03T13:52:04;9.30;99.90
14172;DHT22;7165;52.388;4.928;2023-03-03T13:54:41;9.30;99.90
14172;DHT22;7165;52.388;4.928;2023-03-03T13:57:22;9.30;99.90
14172;DHT22;7165;52.388;4.928;2023-03-03T13:59:59;9.30;99.90
14172;DHT22;7165;52.388;4.928;2023-03-03T14:02:52;9.30;99.90
14172;DHT22;7165;52.388;4.928;2023-03-03T14:05:25;9.10;99.90
14172;DHT22;7165;52.388;4.928;2023-03-03T14:07:57;9.10;99.90
14172;DHT22;7165;52.388;4.928;2023-03-03T14:10:29;9.10;99.90
14172;DHT22;7165;52.388;4.928;2023-03-03T14:13:02;9.10;99.90
14172;DHT22;7165;52.388;4.928;2023-03-03T14:15:31;9.10;99.90
14172;DHT22;7165;52.388;4.928;2023-03-03T14:18:09;9.10;99.90
14172;DHT22;7165;52.388;4.928;2023-03-03T14:20:44;9.20;99.90
14172;DHT22;7165;52.388;4.928;2023-03-03T14:23:15;9.20;99.90
14172;DHT22;7165;52.388;4.928;2023-03-03T14:25:53;9.30;99.90
14172;DHT22;7165;52.388;4.928;2023-03-03T14:28:24;9.30;99.90
14172;DHT22;7165;52.388;4.928;2023-03-03T14:30:54;9.30;99.90
14172;DHT22;7165;52.388;4.928;2023-03-03T14:33:25;9.30;99.90
14172;DHT22;7165;52.388;4.928;2023-03-03T14:36:03;9.40;99.90
14172;DHT22;7165;52.388;4.928;2023-03-03T14:38:46;9.30;99.90
14172;DHT22;7165;52.388;4.928;2023-03-03T14:41:19;9.20;99.90
14172;DHT22;7165;52.388;4.928;2023-03-03T14:43:55;9.20;99.90
14172;DHT22;7165;52.388;4.928;2023-03-03T14:46:35;9.20;99.90
14172;DHT22;7165;52.388;4.928;2023-03-03T14:49:06;9.20;99.90
14172;DHT22;7165;52.388;4.928;2023-03-03T14:51:41;9.20;99.90
14172;DHT22;7165;52.388;4.928;2023-03-03T14:54:19;9.10;99.90
14172;DHT22;7165;52.388;4.928;2023-03-03T14:57:02;9.10;99.90
14172;DHT22;7165;52.388;4.928;2023-03-03T14:59:32;9.10;99.90
14172;DHT22;7165;52.388;4.928;2023-03-03T15:02:27;9.00;99.90
14172;DHT22;7165;52.388;4.928;2023-03-03T15:05:15;9.00;99.90
14172;DHT22;7165;52.388;4.928;2023-03-03T15:07:43;9.00;99.90
14172;DHT22;7165;52.388;4.928;2023-03-03T15:10:11;9.00;99.90
14172;DHT22;7165;52.388;4.928;2023-03-03T15:12:40;9.00;99.90
14172;DHT22;7165;52.388;4.928;2023-03-03T15:15:17;8.90;99.90
14172;DHT22;7165;52.388;4.928;2023-03-03T15:17:54;8.80;99.90
14172;DHT22;7165;52.388;4.928;2023-03-03T15:20:31;8.80;99.90
14172;DHT22;7165;52.388;4.928;2023-03-03T15:23:11;8.70;99.90
14172;DHT22;7165;52.388;4.928;2023-03-03T15:25:46;8.80;99.90
14172;DHT22;7165;52.388;4.928;2023-03-03T15:28:23;8.90;99.90
14172;DHT22;7165;52.388;4.928;2023-03-03T15:31:00;8.90;99.90
14172;DHT22;7165;52.388;4.928;2023-03-03T15:33:33;8.80;99.90
14172;DHT22;7165;52.388;4.928;2023-03-03T15:36:06;8.80;99.90
14172;DHT22;7165;52.388;4.928;2023-03-03T15:38:42;8.70;99.90
14172;DHT22;7165;52.388;4.928;2023-03-03T15:41:18;8.70;99.90
14172;DHT22;7165;52.388;4.928;2023-03-03T15:43:56;8.60;99.90
14172;DHT22;7165;52.388;4.928;2023-03-03T15:46:31;8.60;99.90
14172;DHT22;7165;52.388;4.928;2023-03-03T15:49:12;8.60;99.90
14172;DHT22;7165;52.388;4.928;2023-03-03T15:51:52;8.50;99.90
14172;DHT22;7165;52.388;4.928;2023-03-03T15:54:30;8.50;99.90
14172;DHT22;7165;52.388;4.928;2023-03-03T15:57:04;8.50;99.90
14172;DHT22;7165;52.388;4.928;2023-03-03T16:00:05;8.50;99.90
14172;DHT22;7165;52.388;4.928;2023-03-03T16:02:48;8.40;99.90
14172;DHT22;7165;52.388;4.928;2023-03-03T16:05:21;8.30;99.90
14172;DHT22;7165;52.388;4.928;2023-03-03T16:07:56;8.30;99.90
14172;DHT22;7165;52.388;4.928;2023-03-03T16:10:31;8.30;99.90
14172;DHT22;7165;52.388;4.928;2023-03-03T16:13:08;8.30;99.90
14172;DHT22;7165;52.388;4.928;2023-03-03T16:15:44;8.20;99.90
14172;DHT22;7165;52.388;4.928;2023-03-03T16:18:22;8.20;99.90
14172;DHT22;7165;52.388;4.928;2023-03-03T16:20:58;8.10;99.90
14172;DHT22;7165;52.388;4.928;2023-03-03T16:23:30;8.10;99.90
14172;DHT22;7165;52.388;4.928;2023-03-03T16:26:06;8.10;99.90
14172;DHT22;7165;52.388;4.928;2023-03-03T16:28:47;8.00;99.90
14172;DHT22;7165;52.388;4.928;2023-03-03T16:31:20;7.90;99.90
14172;DHT22;7165;52.388;4.928;2023-03-03T16:33:54;7.90;99.90
14172;DHT22;7165;52.388;4.928;2023-03-03T16:36:30;7.90;99.90
14172;DHT22;7165;52.388;4.928;2023-03-03T16:39:02;7.80;99.90
14172;DHT22;7165;52.388;4.928;2023-03-03T16:41:44;7.80;99.90
14172;DHT22;7165;52.388;4.928;2023-03-03T16:44:29;7.80;99.90
14172;DHT22;7165;52.388;4.928;2023-03-03T16:47:05;7.70;99.90
14172;DHT22;7165;52.388;4.928;2023-03-03T16:49:46;7.70;99.90
14172;DHT22;7165;52.388;4.928;2023-03-03T16:52:16;7.60;99.90